sensor_id;sensor_type;location;lat;lon;timestamp;temperature;humidity
39103;DHT22;24847;48.218;16.414;2022-07-25T00:02:33;23.90;82.10
39103;DHT22;24847;48.218;16.414;2022-07-25T00:07:36;23.70;87.00
39103;DHT22;24847;48.218;16.414;2022-07-25T00:12:39;23.30;90.90
39103;DHT22;24847;48.218;16.414;2022-07-25T00:17:42;23.40;91.60
39103;DHT22;24847;48.218;16.414;2022-07-25T00:22:44;23.80;90.40
39103;DHT22;24847;48.218;16.414;2022-07-25T00:27:48;23.20;90.70
39103;DHT22;24847;48.218;16.414;2022-07-25T00:32:50;23.20;90.80
39103;DHT22;24847;48.218;16.414;2022-07-25T00:37:52;23.20;91.90
39103;DHT22;24847;48.218;16.414;2022-07-25T00:42:56;22.90;93.40
39103;DHT22;24847;48.218;16.414;2022-07-25T00:47:58;23.10;92.10
39103;DHT22;24847;48.218;16.414;2022-07-25T00:53:00;23.00;91.40
39103;DHT22;24847;48.218;16.414;2022-07-25T00:58:04;23.10;89.30
39103;DHT22;24847;48.218;16.414;2022-07-25T01:03:06;23.00;87.00
39103;DHT22;24847;48.218;16.414;2022-07-25T01:08:08;23.00;87.00
39103;DHT22;24847;48.218;16.414;2022-07-25T01:13:12;23.00;87.30
39103;DHT22;24847;48.218;16.414;2022-07-25T01:18:16;22.80;87.60
39103;DHT22;24847;48.218;16.414;2022-07-25T01:23:20;22.70;89.40
39103;DHT22;24847;48.218;16.414;2022-07-25T01:28:22;22.50;90.00
39103;DHT22;24847;48.218;16.414;2022-07-25T01:33:24;22.40;90.70
39103;DHT22;24847;48.218;16.414;2022-07-25T01:38:28;22.30;92.20
39103;DHT22;24847;48.218;16.414;2022-07-25T01:43:30;22.10;94.20
39103;DHT22;24847;48.218;16.414;2022-07-25T01:48:33;22.20;94.10
39103;DHT22;24847;48.218;16.414;2022-07-25T01:53:37;22.00;94.30
39103;DHT22;24847;48.218;16.414;2022-07-25T01:58:39;21.80;92.70
39103;DHT22;24847;48.218;16.414;2022-07-25T02:03:41;21.60;92.60
39103;DHT22;24847;48.218;16.414;2022-07-25T02:08:45;21.80;91.90
39103;DHT22;24847;48.218;16.414;2022-07-25T02:13:48;21.70;92.90
39103;DHT22;24847;48.218;16.414;2022-07-25T02:18:50;21.90;92.30
39103;DHT22;24847;48.218;16.414;2022-07-25T02:23:53;21.70;91.70
39103;DHT22;24847;48.218;16.414;2022-07-25T02:28:56;21.70;91.50
39103;DHT22;24847;48.218;16.414;2022-07-25T02:33:58;21.80;90.90
39103;DHT22;24847;48.218;16.414;2022-07-25T02:39:02;21.60;90.10
39103;DHT22;24847;48.218;16.414;2022-07-25T02:44:05;21.70;89.00
39103;DHT22;24847;48.218;16.414;2022-07-25T02:49:07;21.70;88.30
39103;DHT22;24847;48.218;16.414;2022-07-25T02:54:11;21.80;88.50
39103;DHT22;24847;48.218;16.414;2022-07-25T02:59:13;21.40;89.30
39103;DHT22;24847;48.218;16.414;2022-07-25T03:04:16;21.50;89.70
39103;DHT22;24847;48.218;16.414;2022-07-25T03:09:19;21.10;90.80
39103;DHT22;24847;48.218;16.414;2022-07-25T03:14:22;21.10;90.80
39103;DHT22;24847;48.218;16.414;2022-07-25T03:19:24;21.00;90.90
39103;DHT22;24847;48.218;16.414;2022-07-25T03:24:28;20.90;91.50
39103;DHT22;24847;48.218;16.414;2022-07-25T03:29:30;20.80;91.50
39103;DHT22;24847;48.218;16.414;2022-07-25T03:34:32;20.90;91.50
39103;DHT22;24847;48.218;16.414;2022-07-25T03:39:36;20.90;91.70
39103;DHT22;24847;48.218;16.414;2022-07-25T03:44:38;20.80;92.00
39103;DHT22;24847;48.218;16.414;2022-07-25T03:49:40;20.80;92.10
39103;DHT22;24847;48.218;16.414;2022-07-25T03:54:44;20.80;92.10
39103;DHT22;24847;48.218;16.414;2022-07-25T03:59:46;20.80;92.40
39103;DHT22;24847;48.218;16.414;2022-07-25T04:04:48;20.80;92.10
39103;DHT22;24847;48.218;16.414;2022-07-25T04:09:52;21.40;91.80
39103;DHT22;24847;48.218;16.414;2022-07-25T04:14:54;21.10;91.60
39103;DHT22;24847;48.218;16.414;2022-07-25T04:19:57;21.00;92.00
39103;DHT22;24847;48.218;16.414;2022-07-25T04:25:01;20.80;92.40
39103;DHT22;24847;48.218;16.414;2022-07-25T04:30:03;21.30;92.10
39103;DHT22;24847;48.218;16.414;2022-07-25T04:35:07;20.90;92.60
39103;DHT22;24847;48.218;16.414;2022-07-25T04:40:12;21.00;92.60
39103;DHT22;24847;48.218;16.414;2022-07-25T04:45:14;21.10;92.80
39103;DHT22;24847;48.218;16.414;2022-07-25T04:50:17;21.60;92.20
39103;DHT22;24847;48.218;16.414;2022-07-25T04:55:20;21.80;91.80
39103;DHT22;24847;48.218;16.414;2022-07-25T05:00:23;21.50;91.30
39103;DHT22;24847;48.218;16.414;2022-07-25T05:05:25;22.00;91.10
39103;DHT22;24847;48.218;16.414;2022-07-25T05:10:29;22.20;90.40
39103;DHT22;24847;48.218;16.414;2022-07-25T05:15:31;22.50;90.10
39103;DHT22;24847;48.218;16.414;2022-07-25T05:20:34;22.50;90.10
39103;DHT22;24847;48.218;16.414;2022-07-25T05:25:37;23.00;89.00
39103;DHT22;24847;48.218;16.414;2022-07-25T05:30:40;23.00;87.90
39103;DHT22;24847;48.218;16.414;2022-07-25T05:35:42;23.00;88.10
39103;DHT22;24847;48.218;16.414;2022-07-25T05:40:46;23.60;87.50
39103;DHT22;24847;48.218;16.414;2022-07-25T05:45:48;24.00;87.00
39103;DHT22;24847;48.218;16.414;2022-07-25T05:50:55;24.00;86.90
39103;DHT22;24847;48.218;16.414;2022-07-25T05:56:00;24.60;85.50
39103;DHT22;24847;48.218;16.414;2022-07-25T06:01:02;24.70;85.90
39103;DHT22;24847;48.218;16.414;2022-07-25T06:06:05;25.70;83.20
39103;DHT22;24847;48.218;16.414;2022-07-25T06:11:10;26.30;81.60
39103;DHT22;24847;48.218;16.414;2022-07-25T06:16:12;26.60;80.40
39103;DHT22;24847;48.218;16.414;2022-07-25T06:21:16;26.30;79.60
39103;DHT22;24847;48.218;16.414;2022-07-25T06:26:19;26.30;79.50
39103;DHT22;24847;48.218;16.414;2022-07-25T06:31:21;26.90;76.00
39103;DHT22;24847;48.218;16.414;2022-07-25T06:36:24;27.00;76.30
39103;DHT22;24847;48.218;16.414;2022-07-25T06:41:27;27.60;75.20
39103;DHT22;24847;48.218;16.414;2022-07-25T06:46:30;27.70;71.40
39103;DHT22;24847;48.218;16.414;2022-07-25T06:51:32;27.70;71.80
39103;DHT22;24847;48.218;16.414;2022-07-25T06:56:36;28.80;69.70
39103;DHT22;24847;48.218;16.414;2022-07-25T07:01:38;28.80;67.80
39103;DHT22;24847;48.218;16.414;2022-07-25T07:06:40;28.80;68.80
39103;DHT22;24847;48.218;16.414;2022-07-25T07:11:44;28.30;68.30
39103;DHT22;24847;48.218;16.414;2022-07-25T07:16:47;28.40;67.80
39103;DHT22;24847;48.218;16.414;2022-07-25T07:21:49;28.70;66.40
39103;DHT22;24847;48.218;16.414;2022-07-25T07:26:53;29.20;66.20
39103;DHT22;24847;48.218;16.414;2022-07-25T07:31:55;29.90;64.50
39103;DHT22;24847;48.218;16.414;2022-07-25T07:36:57;31.10;63.80
39103;DHT22;24847;48.218;16.414;2022-07-25T07:42:01;30.20;63.00
39103;DHT22;24847;48.218;16.414;2022-07-25T07:47:03;31.30;61.10
39103;DHT22;24847;48.218;16.414;2022-07-25T07:52:05;30.50;61.70
39103;DHT22;24847;48.218;16.414;2022-07-25T07:57:09;31.50;61.10
39103;DHT22;24847;48.218;16.414;2022-07-25T08:02:11;30.90;61.00
39103;DHT22;24847;48.218;16.414;2022-07-25T08:07:13;31.00;61.30
39103;DHT22;24847;48.218;16.414;2022-07-25T08:12:17;31.20;60.00
39103;DHT22;24847;48.218;16.414;2022-07-25T08:17:19;31.00;59.00
39103;DHT22;24847;48.218;16.414;2022-07-25T08:22:22;30.90;59.40
39103;DHT22;24847;48.218;16.414;2022-07-25T08:27:31;31.20;59.40
39103;DHT22;24847;48.218;16.414;2022-07-25T08:32:34;30.30;59.60
39103;DHT22;24847;48.218;16.414;2022-07-25T08:37:47;31.40;58.60
39103;DHT22;24847;48.218;16.414;2022-07-25T08:42:51;31.10;59.60
39103;DHT22;24847;48.218;16.414;2022-07-25T08:47:55;31.30;59.00
39103;DHT22;24847;48.218;16.414;2022-07-25T08:52:57;31.30;58.20
39103;DHT22;24847;48.218;16.414;2022-07-25T08:58:01;31.50;57.20
39103;DHT22;24847;48.218;16.414;2022-07-25T09:03:04;31.20;57.10
39103;DHT22;24847;48.218;16.414;2022-07-25T09:08:08;31.90;57.70
39103;DHT22;24847;48.218;16.414;2022-07-25T09:13:13;31.40;57.50
39103;DHT22;24847;48.218;16.414;2022-07-25T09:18:17;31.60;58.60
39103;DHT22;24847;48.218;16.414;2022-07-25T09:23:27;31.80;58.00
39103;DHT22;24847;48.218;16.414;2022-07-25T09:28:39;31.10;59.20
39103;DHT22;24847;48.218;16.414;2022-07-25T09:33:45;31.30;59.00
39103;DHT22;24847;48.218;16.414;2022-07-25T09:38:51;30.80;58.90
39103;DHT22;24847;48.218;16.414;2022-07-25T09:43:55;31.40;58.10
39103;DHT22;24847;48.218;16.414;2022-07-25T09:48:59;31.30;59.40
39103;DHT22;24847;48.218;16.414;2022-07-25T09:54:02;31.90;59.00
39103;DHT22;24847;48.218;16.414;2022-07-25T09:59:05;32.00;59.10
39103;DHT22;24847;48.218;16.414;2022-07-25T10:04:13;31.40;59.90
39103;DHT22;24847;48.218;16.414;2022-07-25T10:09:18;31.70;59.80
39103;DHT22;24847;48.218;16.414;2022-07-25T10:14:22;32.10;58.90
39103;DHT22;24847;48.218;16.414;2022-07-25T10:19:40;31.50;59.40
39103;DHT22;24847;48.218;16.414;2022-07-25T10:24:46;31.90;60.00
39103;DHT22;24847;48.218;16.414;2022-07-25T10:29:52;32.50;60.40
39103;DHT22;24847;48.218;16.414;2022-07-25T10:34:54;32.50;61.90
39103;DHT22;24847;48.218;16.414;2022-07-25T10:39:56;33.20;61.70
39103;DHT22;24847;48.218;16.414;2022-07-25T10:45:01;34.20;58.70
39103;DHT22;24847;48.218;16.414;2022-07-25T10:50:10;32.90;61.00
39103;DHT22;24847;48.218;16.414;2022-07-25T10:55:21;33.60;59.60
39103;DHT22;24847;48.218;16.414;2022-07-25T11:00:26;33.70;59.00
39103;DHT22;24847;48.218;16.414;2022-07-25T11:05:29;33.80;59.70
39103;DHT22;24847;48.218;16.414;2022-07-25T11:10:31;32.50;61.70
39103;DHT22;24847;48.218;16.414;2022-07-25T11:15:35;32.80;61.70
39103;DHT22;24847;48.218;16.414;2022-07-25T11:20:38;32.40;61.70
39103;DHT22;24847;48.218;16.414;2022-07-25T11:25:40;32.00;62.90
39103;DHT22;24847;48.218;16.414;2022-07-25T11:30:44;31.50;62.50
39103;DHT22;24847;48.218;16.414;2022-07-25T11:35:47;31.60;63.20
39103;DHT22;24847;48.218;16.414;2022-07-25T11:40:49;31.70;62.40
39103;DHT22;24847;48.218;16.414;2022-07-25T11:46:01;31.60;63.20
39103;DHT22;24847;48.218;16.414;2022-07-25T11:51:08;32.10;61.30
39103;DHT22;24847;48.218;16.414;2022-07-25T11:56:14;31.50;63.20
39103;DHT22;24847;48.218;16.414;2022-07-25T12:01:18;32.40;61.00
39103;DHT22;24847;48.218;16.414;2022-07-25T12:06:28;31.80;62.50
39103;DHT22;24847;48.218;16.414;2022-07-25T12:11:30;31.50;63.20
39103;DHT22;24847;48.218;16.414;2022-07-25T12:16:34;31.50;62.50
39103;DHT22;24847;48.218;16.414;2022-07-25T12:21:37;31.20;63.50
39103;DHT22;24847;48.218;16.414;2022-07-25T12:26:39;31.50;63.50
39103;DHT22;24847;48.218;16.414;2022-07-25T12:31:43;31.00;64.10
39103;DHT22;24847;48.218;16.414;2022-07-25T12:36:45;31.00;64.10
39103;DHT22;24847;48.218;16.414;2022-07-25T12:41:47;31.10;64.20
39103;DHT22;24847;48.218;16.414;2022-07-25T12:46:54;31.00;64.80
39103;DHT22;24847;48.218;16.414;2022-07-25T12:51:56;30.90;66.30
39103;DHT22;24847;48.218;16.414;2022-07-25T12:56:58;31.00;65.20
39103;DHT22;24847;48.218;16.414;2022-07-25T13:02:02;31.20;65.30
39103;DHT22;24847;48.218;16.414;2022-07-25T13:07:05;31.60;63.30
39103;DHT22;24847;48.218;16.414;2022-07-25T13:12:10;31.20;64.40
39103;DHT22;24847;48.218;16.414;2022-07-25T13:17:14;31.30;65.60
39103;DHT22;24847;48.218;16.414;2022-07-25T13:22:16;31.50;64.30
39103;DHT22;24847;48.218;16.414;2022-07-25T13:27:19;31.10;65.20
39103;DHT22;24847;48.218;16.414;2022-07-25T13:32:23;31.10;65.70
39103;DHT22;24847;48.218;16.414;2022-07-25T13:37:27;31.50;65.60
39103;DHT22;24847;48.218;16.414;2022-07-25T13:42:30;31.40;65.40
39103;DHT22;24847;48.218;16.414;2022-07-25T13:47:34;31.30;65.30
39103;DHT22;24847;48.218;16.414;2022-07-25T13:52:36;31.20;65.80
39103;DHT22;24847;48.218;16.414;2022-07-25T13:57:39;31.20;66.90
39103;DHT22;24847;48.218;16.414;2022-07-25T14:02:42;31.20;65.60
39103;DHT22;24847;48.218;16.414;2022-07-25T14:07:44;31.20;67.20
39103;DHT22;24847;48.218;16.414;2022-07-25T14:12:47;31.40;66.20
39103;DHT22;24847;48.218;16.414;2022-07-25T14:17:51;31.50;66.30
39103;DHT22;24847;48.218;16.414;2022-07-25T14:22:53;31.60;65.60
39103;DHT22;24847;48.218;16.414;2022-07-25T14:27:56;31.60;65.40
39103;DHT22;24847;48.218;16.414;2022-07-25T14:33:01;31.70;65.40
39103;DHT22;24847;48.218;16.414;2022-07-25T14:38:03;31.80;65.70
39103;DHT22;24847;48.218;16.414;2022-07-25T14:43:22;31.80;65.00
39103;DHT22;24847;48.218;16.414;2022-07-25T14:48:28;31.90;65.20
39103;DHT22;24847;48.218;16.414;2022-07-25T14:53:30;31.80;65.10
39103;DHT22;24847;48.218;16.414;2022-07-25T14:58:34;32.00;65.20
39103;DHT22;24847;48.218;16.414;2022-07-25T15:03:39;32.20;65.40
39103;DHT22;24847;48.218;16.414;2022-07-25T15:08:41;32.50;63.70
39103;DHT22;24847;48.218;16.414;2022-07-25T15:13:44;31.90;65.90
39103;DHT22;24847;48.218;16.414;2022-07-25T15:18:48;31.90;65.90
39103;DHT22;24847;48.218;16.414;2022-07-25T15:23:50;31.90;65.90
39103;DHT22;24847;48.218;16.414;2022-07-25T15:28:53;31.80;67.00
39103;DHT22;24847;48.218;16.414;2022-07-25T15:33:57;31.90;65.90
39103;DHT22;24847;48.218;16.414;2022-07-25T15:38:59;32.10;66.30
39103;DHT22;24847;48.218;16.414;2022-07-25T15:44:02;31.80;67.40
39103;DHT22;24847;48.218;16.414;2022-07-25T15:49:05;31.80;66.70
39103;DHT22;24847;48.218;16.414;2022-07-25T15:54:08;31.70;67.20
39103;DHT22;24847;48.218;16.414;2022-07-25T15:59:11;31.90;67.00
39103;DHT22;24847;48.218;16.414;2022-07-25T16:04:15;31.90;67.10
39103;DHT22;24847;48.218;16.414;2022-07-25T16:09:17;31.80;68.20
39103;DHT22;24847;48.218;16.414;2022-07-25T16:14:20;31.70;67.10
39103;DHT22;24847;48.218;16.414;2022-07-25T16:19:24;31.90;67.30
39103;DHT22;24847;48.218;16.414;2022-07-25T16:24:26;31.80;68.10
39103;DHT22;24847;48.218;16.414;2022-07-25T16:29:28;31.70;67.80
39103;DHT22;24847;48.218;16.414;2022-07-25T16:34:32;31.80;67.90
39103;DHT22;24847;48.218;16.414;2022-07-25T16:39:41;31.60;68.20
39103;DHT22;24847;48.218;16.414;2022-07-25T16:44:52;31.60;68.80
39103;DHT22;24847;48.218;16.414;2022-07-25T16:49:58;31.50;69.20
39103;DHT22;24847;48.218;16.414;2022-07-25T16:55:00;31.40;69.90
39103;DHT22;24847;48.218;16.414;2022-07-25T17:00:03;31.40;70.20
39103;DHT22;24847;48.218;16.414;2022-07-25T17:05:09;31.40;70.90
39103;DHT22;24847;48.218;16.414;2022-07-25T17:10:11;31.30;70.50
39103;DHT22;24847;48.218;16.414;2022-07-25T17:15:13;31.30;70.70
39103;DHT22;24847;48.218;16.414;2022-07-25T17:20:17;31.30;71.10
39103;DHT22;24847;48.218;16.414;2022-07-25T17:25:20;31.40;70.60
39103;DHT22;24847;48.218;16.414;2022-07-25T17:30:22;31.20;71.50
39103;DHT22;24847;48.218;16.414;2022-07-25T17:35:26;31.20;71.10
39103;DHT22;24847;48.218;16.414;2022-07-25T17:40:34;31.20;71.80
39103;DHT22;24847;48.218;16.414;2022-07-25T17:45:38;31.30;70.70
39103;DHT22;24847;48.218;16.414;2022-07-25T17:50:42;31.20;70.90
39103;DHT22;24847;48.218;16.414;2022-07-25T17:55:44;31.10;71.90
39103;DHT22;24847;48.218;16.414;2022-07-25T18:00:47;31.10;71.20
39103;DHT22;24847;48.218;16.414;2022-07-25T18:05:50;31.20;71.30
39103;DHT22;24847;48.218;16.414;2022-07-25T18:10:52;31.20;70.90
39103;DHT22;24847;48.218;16.414;2022-07-25T18:15:55;31.00;71.20
39103;DHT22;24847;48.218;16.414;2022-07-25T18:20:58;30.90;71.80
39103;DHT22;24847;48.218;16.414;2022-07-25T18:26:01;31.00;71.70
39103;DHT22;24847;48.218;16.414;2022-07-25T18:31:03;30.70;73.40
39103;DHT22;24847;48.218;16.414;2022-07-25T18:36:08;30.60;73.70
39103;DHT22;24847;48.218;16.414;2022-07-25T18:41:10;30.60;73.90
39103;DHT22;24847;48.218;16.414;2022-07-25T18:46:12;30.50;73.60
39103;DHT22;24847;48.218;16.414;2022-07-25T18:51:17;30.40;74.50
39103;DHT22;24847;48.218;16.414;2022-07-25T18:56:20;30.40;74.70
39103;DHT22;24847;48.218;16.414;2022-07-25T19:01:22;30.00;75.30
39103;DHT22;24847;48.218;16.414;2022-07-25T19:06:26;30.00;75.70
39103;DHT22;24847;48.218;16.414;2022-07-25T19:11:28;30.00;76.10
39103;DHT22;24847;48.218;16.414;2022-07-25T19:16:30;30.00;75.60
39103;DHT22;24847;48.218;16.414;2022-07-25T19:21:34;29.90;75.40
39103;DHT22;24847;48.218;16.414;2022-07-25T19:26:37;29.80;76.20
39103;DHT22;24847;48.218;16.414;2022-07-25T19:31:40;29.80;76.60
39103;DHT22;24847;48.218;16.414;2022-07-25T19:36:43;29.90;75.20
39103;DHT22;24847;48.218;16.414;2022-07-25T19:41:46;29.90;75.10
39103;DHT22;24847;48.218;16.414;2022-07-25T19:46:48;29.80;75.50
39103;DHT22;24847;48.218;16.414;2022-07-25T19:51:51;29.80;75.70
39103;DHT22;24847;48.218;16.414;2022-07-25T19:56:54;29.80;75.00
39103;DHT22;24847;48.218;16.414;2022-07-25T20:01:56;29.80;75.50
39103;DHT22;24847;48.218;16.414;2022-07-25T20:06:59;29.60;75.50
39103;DHT22;24847;48.218;16.414;2022-07-25T20:12:03;29.70;75.20
39103;DHT22;24847;48.218;16.414;2022-07-25T20:17:05;29.70;74.80
39103;DHT22;24847;48.218;16.414;2022-07-25T20:22:09;29.50;75.60
39103;DHT22;24847;48.218;16.414;2022-07-25T20:27:12;29.10;76.60
39103;DHT22;24847;48.218;16.414;2022-07-25T20:32:14;29.00;76.80
39103;DHT22;24847;48.218;16.414;2022-07-25T20:37:18;28.80;78.00
39103;DHT22;24847;48.218;16.414;2022-07-25T20:42:20;28.70;80.40
39103;DHT22;24847;48.218;16.414;2022-07-25T20:47:23;28.60;81.00
39103;DHT22;24847;48.218;16.414;2022-07-25T20:52:26;28.40;80.40
39103;DHT22;24847;48.218;16.414;2022-07-25T20:57:29;28.30;79.60
39103;DHT22;24847;48.218;16.414;2022-07-25T21:02:32;28.10;80.00
39103;DHT22;24847;48.218;16.414;2022-07-25T21:07:36;28.30;80.40
39103;DHT22;24847;48.218;16.414;2022-07-25T21:12:39;28.50;79.20
39103;DHT22;24847;48.218;16.414;2022-07-25T21:17:41;28.50;80.50
39103;DHT22;24847;48.218;16.414;2022-07-25T21:22:45;28.40;79.90
39103;DHT22;24847;48.218;16.414;2022-07-25T21:27:48;28.40;79.50
39103;DHT22;24847;48.218;16.414;2022-07-25T21:32:50;28.50;79.10
39103;DHT22;24847;48.218;16.414;2022-07-25T21:37:53;28.60;78.80
39103;DHT22;24847;48.218;16.414;2022-07-25T21:42:56;28.10;79.90
39103;DHT22;24847;48.218;16.414;2022-07-25T21:47:58;28.10;81.30
39103;DHT22;24847;48.218;16.414;2022-07-25T21:53:03;27.60;82.80
39103;DHT22;24847;48.218;16.414;2022-07-25T21:58:07;27.60;82.20
39103;DHT22;24847;48.218;16.414;2022-07-25T22:03:09;27.70;82.50
39103;DHT22;24847;48.218;16.414;2022-07-25T22:08:12;27.80;82.10
39103;DHT22;24847;48.218;16.414;2022-07-25T22:13:14;27.90;81.40
39103;DHT22;24847;48.218;16.414;2022-07-25T22:18:17;27.80;81.30
39103;DHT22;24847;48.218;16.414;2022-07-25T22:23:20;28.10;81.00
39103;DHT22;24847;48.218;16.414;2022-07-25T22:28:22;27.70;82.30
39103;DHT22;24847;48.218;16.414;2022-07-25T22:33:25;27.30;83.00
39103;DHT22;24847;48.218;16.414;2022-07-25T22:38:31;27.20;83.90
39103;DHT22;24847;48.218;16.414;2022-07-25T22:43:34;27.30;84.00
39103;DHT22;24847;48.218;16.414;2022-07-25T22:48:36;27.40;83.80
39103;DHT22;24847;48.218;16.414;2022-07-25T22:53:40;27.70;81.80
39103;DHT22;24847;48.218;16.414;2022-07-25T22:58:42;27.80;81.60
39103;DHT22;24847;48.218;16.414;2022-07-25T23:03:45;27.80;81.90
39103;DHT22;24847;48.218;16.414;2022-07-25T23:08:50;27.20;84.00
39103;DHT22;24847;48.218;16.414;2022-07-25T23:13:52;27.00;85.40
39103;DHT22;24847;48.218;16.414;2022-07-25T23:18:55;27.10;84.90
39103;DHT22;24847;48.218;16.414;2022-07-25T23:23:58;27.00;85.40
39103;DHT22;24847;48.218;16.414;2022-07-25T23:29:00;27.20;84.70
39103;DHT22;24847;48.218;16.414;2022-07-25T23:34:03;27.40;83.90
39103;DHT22;24847;48.218;16.414;2022-07-25T23:39:07;27.50;83.50
39103;DHT22;24847;48.218;16.414;2022-07-25T23:44:09;26.60;88.40
39103;DHT22;24847;48.218;16.414;2022-07-25T23:49:11;26.50;90.50
39103;DHT22;24847;48.218;16.414;2022-07-25T23:54:15;26.40;90.80
39103;DHT22;24847;48.218;16.414;2022-07-25T23:59:17;26.10;90.60
